Time;durP1;ratioP1;P1;durP2;ratioP2;P2;SDS_P1;SDS_P2;PMS_P1;PMS_P2;Temp;Humidity;BMP_temperature;BMP_pressure;BME280_temperature;BME280_humidity;BME280_pressure;Samples;Min_cycle;Max_cycle;Signal;HPM_P1;HPM_P2
2022/03/30 03:01:10;;;;;;;1.75;1.58;;;19.80;48.30;;;;;;5572614;23;46295;-55
2022/03/30 03:03:36;;;;;;;2.08;1.88;;;19.80;48.30;;;;;;4937062;28;45249;-54
2022/03/30 03:06:01;;;;;;;4.25;2.00;;;19.70;48.30;;;;;;4953464;28;46224;-53
2022/03/30 03:08:27;;;;;;;2.67;2.00;;;19.80;48.30;;;;;;4956075;28;44978;-53
2022/03/30 03:10:52;;;;;;;2.28;1.98;;;19.70;48.20;;;;;;4957146;28;45283;-55
2022/03/30 03:13:18;;;;;;;2.08;1.88;;;19.70;48.20;;;;;;4955113;28;45089;-53
2022/03/30 03:15:45;;;;;;;3.78;1.80;;;19.70;48.20;;;;;;4951417;28;46476;-54
2022/03/30 03:18:12;;;;;;;2.17;1.95;;;19.70;48.30;;;;;;4950356;28;45474;-56
2022/03/30 03:20:40;;;;;;;2.22;2.03;;;19.70;48.30;;;;;;4953994;28;45454;-51
2022/03/30 03:23:06;;;;;;;2.53;2.17;;;19.70;48.30;;;;;;4967220;28;45148;-55
2022/03/30 03:25:33;;;;;;;2.13;1.90;;;19.70;48.30;;;;;;4953263;28;46155;-56
2022/03/30 03:28:00;;;;;;;2.50;2.00;;;19.70;48.30;;;;;;4941174;28;45146;-55
2022/03/30 03:30:26;;;;;;;1.77;1.67;;;19.70;48.30;;;;;;4953833;28;45316;-52
2022/03/30 03:32:51;;;;;;;2.10;1.88;;;19.70;48.30;;;;;;4952812;28;45948;-52
2022/03/30 03:35:17;;;;;;;2.63;2.25;;;19.70;48.30;;;;;;4951271;28;45828;-52
2022/03/30 03:37:43;;;;;;;2.17;1.98;;;19.70;48.40;;;;;;4953139;28;45276;-55
2022/03/30 03:40:09;;;;;;;2.45;2.22;;;19.70;48.40;;;;;;4953781;28;45605;-56
2022/03/30 03:42:35;;;;;;;3.60;2.20;;;19.70;48.40;;;;;;4952379;28;45270;-53
2022/03/30 03:45:00;;;;;;;2.53;2.00;;;19.70;48.40;;;;;;4940123;28;45610;-50
2022/03/30 03:47:26;;;;;;;3.13;1.90;;;19.70;48.40;;;;;;4953519;28;45198;-54
2022/03/30 03:49:52;;;;;;;2.35;2.15;;;19.70;48.40;;;;;;4953893;28;45571;-51
2022/03/30 03:52:17;;;;;;;2.25;2.03;;;19.70;49.00;;;;;;4955441;28;44729;-53
2022/03/30 03:54:43;;;;;;;2.35;1.90;;;19.70;48.40;;;;;;4952917;28;46049;-56
2022/03/30 03:57:09;;;;;;;3.33;2.20;;;19.60;48.40;;;;;;4936864;28;44922;-52
2022/03/30 03:59:35;;;;;;;2.15;1.80;;;19.60;48.40;;;;;;4954679;28;45015;-51
2022/03/30 04:02:02;;;;;;;2.10;1.75;;;19.70;48.40;;;;;;4950868;28;45273;-54
2022/03/30 04:04:28;;;;;;;2.97;2.05;;;19.60;48.40;;;;;;4953152;28;46496;-50
2022/03/30 04:06:53;;;;;;;4.03;1.92;;;19.60;48.40;;;;;;4953753;28;45644;-55
2022/03/30 04:09:19;;;;;;;2.10;1.90;;;19.60;48.40;;;;;;4955303;28;45361;-50
2022/03/30 04:11:44;;;;;;;2.47;2.20;;;19.60;48.50;;;;;;4969302;28;45498;-52
2022/03/30 04:14:10;;;;;;;1.92;1.70;;;19.70;48.50;;;;;;4954916;28;46370;-59
2022/03/30 04:16:36;;;;;;;2.92;2.00;;;19.60;48.40;;;;;;4950549;28;45518;-58
2022/03/30 04:19:01;;;;;;;4.50;2.47;;;19.70;48.40;;;;;;4953818;28;45333;-52
2022/03/30 04:21:27;;;;;;;1.75;1.65;;;19.60;48.40;;;;;;4955634;28;45262;-54
2022/03/30 04:23:52;;;;;;;1.83;1.73;;;19.60;48.50;;;;;;4953270;28;46128;-55
2022/03/30 04:26:18;;;;;;;2.20;1.98;;;19.60;48.50;;;;;;4953986;28;45633;-54
2022/03/30 04:28:44;;;;;;;2.10;1.90;;;19.60;48.50;;;;;;4954309;28;45307;-56
2022/03/30 04:31:12;;;;;;;2.15;1.80;;;19.60;48.50;;;;;;4952525;28;45164;-56
2022/03/30 04:33:38;;;;;;;3.90;1.85;;;19.60;48.60;;;;;;4954296;28;46233;-51
2022/03/30 04:36:04;;;;;;;2.15;1.95;;;19.60;49.10;;;;;;4953085;28;45233;-58
2022/03/30 04:38:30;;;;;;;2.40;2.10;;;19.60;48.60;;;;;;4966955;28;44858;-53
2022/03/30 04:40:55;;;;;;;1.83;1.70;;;19.60;48.60;;;;;;4951603;28;45393;-52
2022/03/30 04:43:21;;;;;;;2.83;2.38;;;19.60;48.60;;;;;;4951907;28;45921;-55
2022/03/30 04:45:47;;;;;;;2.20;2.00;;;19.60;48.60;;;;;;4950228;28;45657;-54
2022/03/30 04:48:12;;;;;;;2.20;2.00;;;19.60;48.60;;;;;;4951811;28;45331;-53
2022/03/30 04:50:38;;;;;;;2.42;2.03;;;19.50;48.60;;;;;;4952423;28;45513;-56
2022/03/30 04:53:03;;;;;;;2.20;2.00;;;19.60;48.60;;;;;;4952554;28;45975;-52
2022/03/30 04:55:29;;;;;;;2.70;1.95;;;19.50;49.20;;;;;;4955610;28;45308;-60
2022/03/30 04:57:54;;;;;;;2.20;1.75;;;19.50;48.60;;;;;;4954770;28;45018;-55
2022/03/30 05:00:21;;;;;;;2.00;1.80;;;19.60;48.70;;;;;;4949133;28;45451;-56
2022/03/30 05:02:46;;;;;;;2.30;1.88;;;19.60;49.30;;;;;;4950938;28;45486;-53
2022/03/30 05:05:12;;;;;;;2.20;2.00;;;19.60;48.70;;;;;;4954090;28;45577;-54
2022/03/30 05:07:38;;;;;;;2.25;2.05;;;19.50;48.60;;;;;;4953847;28;44846;-56
2022/03/30 05:10:09;;;;;;;2.72;2.17;;;19.60;48.70;;;;;;4949353;28;46121;-59
2022/03/30 05:12:35;;;;;;;2.20;1.67;;;19.50;48.60;;;;;;4949666;28;46232;-53
2022/03/30 05:15:00;;;;;;;2.22;2.03;;;19.50;48.60;;;;;;4953591;28;45478;-54
2022/03/30 05:17:26;;;;;;;2.13;1.70;;;19.50;48.70;;;;;;4956700;28;45230;-55
2022/03/30 05:19:51;;;;;;;2.08;1.88;;;19.50;48.60;;;;;;4957522;28;47743;-53
2022/03/30 05:22:17;;;;;;;2.88;2.20;;;19.50;48.60;;;;;;4956872;28;46098;-55
2022/03/30 05:24:43;;;;;;;4.28;1.98;;;19.50;48.60;;;;;;4958599;28;44796;-53
2022/03/30 05:27:09;;;;;;;2.50;2.00;;;19.50;48.70;;;;;;4956656;28;45433;-51
2022/03/30 05:29:35;;;;;;;3.38;1.98;;;19.50;48.60;;;;;;4955138;28;45494;-54
2022/03/30 05:32:01;;;;;;;2.15;1.88;;;19.50;48.70;;;;;;4955442;28;47024;-55
2022/03/30 05:34:27;;;;;;;2.50;2.13;;;19.50;48.70;;;;;;4957255;28;45584;-53
2022/03/30 05:36:53;;;;;;;1.98;1.60;;;19.50;48.70;;;;;;4957733;28;45609;-56
2022/03/30 05:39:18;;;;;;;1.95;1.80;;;19.50;48.60;;;;;;4957536;28;45358;-52
2022/03/30 05:41:44;;;;;;;2.75;2.28;;;19.50;48.60;;;;;;4956468;28;45225;-53
2022/03/30 05:44:09;;;;;;;2.70;2.05;;;19.50;48.70;;;;;;4956656;28;45227;-53
2022/03/30 05:46:36;;;;;;;2.80;2.20;;;19.50;48.60;;;;;;4957277;28;45330;-54
2022/03/30 05:49:03;;;;;;;1.92;1.73;;;19.50;48.60;;;;;;4957881;28;45489;-55
2022/03/30 05:51:29;;;;;;;2.45;2.13;;;19.50;48.70;;;;;;4956716;28;46187;-53
2022/03/30 05:53:54;;;;;;;2.35;1.95;;;19.50;48.70;;;;;;4945822;28;44923;-52
2022/03/30 05:57:00;;;;;;;2.55;1.83;;;19.50;48.70;;;;;;4951223;28;44979;-52
2022/03/30 05:59:05;;;;;;;2.30;2.10;;;19.50;48.70;;;;;;4946400;28;45278;-55
2022/03/30 06:01:31;;;;;;;2.95;2.10;;;19.50;48.70;;;;;;4946044;28;46081;-54
2022/03/30 06:03:57;;;;;;;2.00;1.80;;;19.40;48.70;;;;;;4947900;28;45366;-58
2022/03/30 06:06:22;;;;;;;2.35;2.00;;;19.50;48.70;;;;;;4949194;28;45164;-54
2022/03/30 06:08:48;;;;;;;2.70;2.38;;;19.50;48.70;;;;;;4949329;28;45051;-53
2022/03/30 06:11:13;;;;;;;3.20;2.28;;;19.50;48.70;;;;;;4952826;28;45447;-51
2022/03/30 06:13:39;;;;;;;2.20;1.77;;;19.50;48.70;;;;;;4954893;28;44681;-55
2022/03/30 06:16:05;;;;;;;2.35;2.00;;;19.50;48.60;;;;;;4943304;28;45370;-53
2022/03/30 06:18:30;;;;;;;2.10;1.90;;;19.50;48.60;;;;;;4953433;28;44745;-54
2022/03/30 06:20:56;;;;;;;2.15;1.88;;;19.60;48.40;;;;;;4951948;28;46015;-54
2022/03/30 06:23:21;;;;;;;2.83;1.77;;;19.70;48.30;;;;;;4973502;28;45659;-52
2022/03/30 06:25:47;;;;;;;1.45;1.35;;;19.80;48.10;;;;;;4956277;28;45663;-53
2022/03/30 06:28:12;;;;;;;2.03;1.83;;;19.90;48.00;;;;;;4953705;28;45665;-52
2022/03/30 06:30:38;;;;;;;2.20;1.83;;;20.00;47.80;;;;;;4954615;28;45968;-58
2022/03/30 06:33:04;;;;;;;2.28;1.70;;;20.20;47.70;;;;;;4958830;28;45394;-51
2022/03/30 06:35:30;;;;;;;1.75;1.58;;;20.30;47.60;;;;;;4958699;28;45510;-49
2022/03/30 06:37:55;;;;;;;2.22;1.70;;;20.40;47.50;;;;;;4955849;28;45655;-54
2022/03/30 06:40:21;;;;;;;1.65;1.40;;;20.50;47.40;;;;;;4956555;28;45064;-52
2022/03/30 06:42:48;;;;;;;2.13;1.67;;;20.60;47.30;;;;;;4956455;28;45546;-51
2022/03/30 06:45:13;;;;;;;1.77;1.52;;;20.70;47.10;;;;;;4956784;28;45244;-53
2022/03/30 06:47:39;;;;;;;1.63;1.48;;;20.80;47.00;;;;;;4969227;28;45419;-53
2022/03/30 06:50:05;;;;;;;1.88;1.67;;;20.90;46.90;;;;;;4952676;28;47151;-53
2022/03/30 06:52:32;;;;;;;1.90;1.42;;;21.00;46.80;;;;;;4959304;28;45225;-56
2022/03/30 06:54:59;;;;;;;1.63;1.50;;;21.10;46.80;;;;;;4957237;28;44806;-52
2022/03/30 06:57:24;;;;;;;1.63;1.35;;;21.20;46.60;;;;;;4955517;28;45029;-52
2022/03/30 06:59:50;;;;;;;2.22;1.90;;;21.30;46.50;;;;;;4956568;28;47777;-54
2022/03/30 07:02:15;;;;;;;1.73;1.48;;;21.40;46.40;;;;;;4955240;28;45868;-53
2022/03/30 07:04:41;;;;;;;2.00;1.50;;;21.50;46.40;;;;;;4957570;28;47212;-56
2022/03/30 07:12:36;;;;;;;2.13;1.40;;;21.80;46.10;;;;;;4949640;28;44852;-53
2022/03/30 07:15:01;;;;;;;1.50;1.30;;;21.90;46.00;;;;;;4953256;28;44966;-53
2022/03/30 07:17:27;;;;;;;1.40;1.30;;;22.00;45.90;;;;;;4955338;28;45291;-52
2022/03/30 07:19:53;;;;;;;2.08;1.52;;;22.10;45.90;;;;;;4958339;28;46094;-50
2022/03/30 07:22:18;;;;;;;2.47;1.65;;;22.20;45.80;;;;;;4954533;28;45346;-56
2022/03/30 07:24:44;;;;;;;1.42;1.25;;;22.30;45.70;;;;;;4953729;28;45964;-53
2022/03/30 07:27:10;;;;;;;1.40;1.30;;;22.30;45.60;;;;;;4954254;28;45271;-53
2022/03/30 07:29:35;;;;;;;2.33;1.60;;;22.40;45.60;;;;;;4959578;28;47318;-53
2022/03/30 07:32:01;;;;;;;1.35;1.25;;;22.50;45.50;;;;;;4953447;28;45622;-55
2022/03/30 07:34:27;;;;;;;1.42;1.33;;;22.50;45.50;;;;;;4953925;28;45219;-52
2022/03/30 07:36:52;;;;;;;1.10;1.00;;;22.60;45.50;;;;;;4973635;28;45226;-53
2022/03/30 07:39:18;;;;;;;1.27;1.13;;;22.70;45.40;;;;;;4938982;28;45522;-50
2022/03/30 07:41:44;;;;;;;2.28;1.63;;;22.70;45.30;;;;;;4952337;28;45311;-53
2022/03/30 07:44:10;;;;;;;1.10;1.00;;;22.80;45.30;;;;;;4954861;28;45219;-55
2022/03/30 07:46:35;;;;;;;1.30;1.13;;;22.90;45.30;;;;;;4940649;28;44750;-54
2022/03/30 07:49:01;;;;;;;1.50;1.20;;;22.90;45.20;;;;;;4955819;28;45422;-55
2022/03/30 07:51:26;;;;;;;1.13;1.02;;;23.00;45.20;;;;;;4955413;28;44579;-53
2022/03/30 07:53:52;;;;;;;1.27;1.17;;;23.10;45.20;;;;;;4956269;28;44665;-54
2022/03/30 07:56:18;;;;;;;1.30;1.20;;;23.10;45.10;;;;;;4954046;28;45173;-53
2022/03/30 07:58:46;;;;;;;1.58;1.38;;;23.10;45.10;;;;;;4949207;28;45987;-55
2022/03/30 08:01:11;;;;;;;1.40;1.30;;;23.20;45.10;;;;;;4954703;28;44707;-57
2022/03/30 08:03:37;;;;;;;1.52;1.23;;;23.30;45.10;;;;;;4959771;28;45364;-52
2022/03/30 08:06:02;;;;;;;1.35;1.25;;;23.30;44.90;;;;;;4958381;28;45268;-55
2022/03/30 08:08:28;;;;;;;0.98;0.90;;;23.30;44.90;;;;;;4954984;28;46406;-54
2022/03/30 08:10:54;;;;;;;1.23;1.10;;;23.40;44.90;;;;;;4956369;28;45018;-52
2022/03/30 08:13:19;;;;;;;1.42;1.20;;;23.40;44.80;;;;;;4957544;28;45208;-54
2022/03/30 08:15:45;;;;;;;0.95;0.93;;;23.50;44.90;;;;;;4918873;28;45400;-55
2022/03/30 08:18:11;;;;;;;1.50;1.20;;;23.50;44.80;;;;;;4955434;28;46400;-53
2022/03/30 08:23:21;;;;;;;1.20;1.10;;;23.60;44.80;;;;;;4954568;28;44888;-54
2022/03/30 08:25:46;;;;;;;1.20;0.98;;;23.70;44.80;;;;;;4946912;28;45186;-53
2022/03/30 08:28:12;;;;;;;1.17;0.95;;;23.70;44.70;;;;;;4971681;28;44869;-54
2022/03/30 08:30:37;;;;;;;1.30;1.20;;;23.70;44.70;;;;;;4940864;28;45274;-51
2022/03/30 08:33:03;;;;;;;0.95;0.90;;;23.80;44.70;;;;;;4955937;28;45554;-52
2022/03/30 08:35:30;;;;;;;1.20;1.10;;;23.80;44.60;;;;;;4950699;28;45592;-52
2022/03/30 08:37:56;;;;;;;1.27;1.17;;;23.80;44.50;;;;;;4955846;28;45327;-55
2022/03/30 08:40:22;;;;;;;1.10;1.00;;;23.90;44.60;;;;;;4957757;28;44760;-52
2022/03/30 08:42:48;;;;;;;1.15;0.98;;;23.90;44.60;;;;;;4971467;28;45256;-50
2022/03/30 08:45:14;;;;;;;1.45;1.30;;;23.90;44.50;;;;;;4968855;28;45448;-54
2022/03/30 08:47:39;;;;;;;3.40;1.13;;;23.90;44.50;;;;;;4952678;28;45505;-52
2022/03/30 08:50:05;;;;;;;1.58;1.13;;;24.00;44.50;;;;;;4951819;28;45398;-53
2022/03/30 08:52:31;;;;;;;3.47;1.33;;;24.00;44.40;;;;;;4957184;28;45256;-52
2022/03/30 08:54:57;;;;;;;1.35;1.25;;;24.00;45.00;;;;;;4958646;28;45391;-52
2022/03/30 08:57:23;;;;;;;2.35;0.90;;;24.10;44.40;;;;;;4959108;28;45234;-54
2022/03/30 09:00:09;;;;;;;1.95;1.20;;;24.10;44.30;;;;;;4961784;28;45168;-57
2022/03/30 09:02:46;;;;;;;1.90;1.30;;;24.10;44.10;;;;;;4921138;28;45234;-55
2022/03/30 09:05:13;;;;;;;1.20;1.10;;;24.10;44.30;;;;;;4920833;28;45398;-57
2022/03/30 09:07:40;;;;;;;1.33;1.20;;;24.20;44.30;;;;;;4921381;28;45969;-54
2022/03/30 09:10:11;;;;;;;1.30;1.20;;;24.20;44.30;;;;;;4923980;28;45470;-57
2022/03/30 09:12:37;;;;;;;1.33;1.23;;;24.20;44.30;;;;;;4921692;28;45669;-52
2022/03/30 09:15:04;;;;;;;1.27;1.17;;;24.20;44.40;;;;;;4903592;28;45427;-52
2022/03/30 09:17:36;;;;;;;1.33;1.23;;;24.10;44.40;;;;;;4921171;28;45982;-50
2022/03/30 09:20:32;;;;;;;1.20;1.10;;;24.10;44.50;;;;;;4922451;28;45502;-53
2022/03/30 09:23:00;;;;;;;1.38;1.00;;;24.00;44.50;;;;;;4917355;28;45443;-54
2022/03/30 09:25:29;;;;;;;1.55;1.30;;;23.90;44.60;;;;;;4922985;28;45557;-55
2022/03/30 09:27:55;;;;;;;1.60;1.30;;;23.90;44.70;;;;;;4919555;28;46930;-52
2022/03/30 09:30:21;;;;;;;1.20;1.10;;;23.90;44.70;;;;;;4927795;28;44690;-58
2022/03/30 09:32:49;;;;;;;0.98;0.98;;;23.90;44.80;;;;;;4923925;28;45549;-54
2022/03/30 09:35:32;;;;;;;1.52;1.30;;;23.80;44.80;;;;;;4922720;28;45671;-53
2022/03/30 09:38:09;;;;;;;1.15;1.05;;;23.80;44.70;;;;;;4920856;28;46038;-53
2022/03/30 09:40:45;;;;;;;1.73;1.33;;;23.80;44.90;;;;;;4903146;28;45212;-51
2022/03/30 09:43:27;;;;;;;1.50;1.20;;;23.70;45.00;;;;;;4917297;28;45257;-53
2022/03/30 09:46:02;;;;;;;1.77;1.27;;;23.70;44.90;;;;;;4922388;28;45713;-54
2022/03/30 09:48:29;;;;;;;3.35;1.20;;;23.70;45.10;;;;;;4919662;28;45164;-56
2022/03/30 09:50:55;;;;;;;2.05;1.00;;;23.60;45.20;;;;;;4919065;28;45141;-55
2022/03/30 09:53:23;;;;;;;1.60;1.50;;;23.60;45.20;;;;;;4919183;28;45285;-54
2022/03/30 09:56:19;;;;;;;1.20;1.10;;;23.80;44.90;;;;;;4931001;28;45605;-53
2022/03/30 09:58:45;;;;;;;1.30;1.20;;;23.60;45.10;;;;;;4924386;28;46012;-52
2022/03/30 10:01:19;;;;;;;1.52;1.35;;;23.50;45.30;;;;;;4939643;28;45728;-54
2022/03/30 10:03:48;;;;;;;1.60;1.30;;;23.50;45.30;;;;;;4962909;28;45286;-51
2022/03/30 10:06:22;;;;;;;1.50;1.40;;;23.40;45.40;;;;;;4959458;28;45149;-52
2022/03/30 10:08:49;;;;;;;1.58;1.42;;;23.40;45.50;;;;;;4962424;28;46617;-51
2022/03/30 10:11:18;;;;;;;1.35;1.25;;;23.40;45.50;;;;;;4959831;28;45516;-55
2022/03/30 10:13:54;;;;;;;1.60;1.30;;;23.30;45.60;;;;;;4976078;28;45178;-51
2022/03/30 10:16:20;;;;;;;1.27;1.17;;;23.30;45.60;;;;;;4955742;28;45124;-56
2022/03/30 10:18:48;;;;;;;1.50;1.25;;;23.20;45.70;;;;;;4958572;28;47190;-53
2022/03/30 10:21:22;;;;;;;1.42;1.25;;;23.20;45.70;;;;;;4959636;28;45124;-50
2022/03/30 10:24:15;;;;;;;1.35;1.25;;;23.20;45.80;;;;;;4958223;28;45286;-51
2022/03/30 10:27:02;;;;;;;1.50;1.40;;;23.10;45.60;;;;;;4956974;28;45138;-59
2022/03/30 10:29:29;;;;;;;2.13;1.60;;;23.10;45.70;;;;;;4952888;28;45236;-51
2022/03/30 10:32:17;;;;;;;1.42;1.33;;;23.00;45.80;;;;;;4973991;28;45230;-53
2022/03/30 10:34:56;;;;;;;1.20;1.10;;;23.00;45.80;;;;;;4957273;28;45381;-51
2022/03/30 10:37:37;;;;;;;2.22;1.30;;;23.00;45.80;;;;;;4959273;28;45199;-53
2022/03/30 10:40:03;;;;;;;1.40;1.30;;;23.00;45.80;;;;;;4959058;28;45377;-53
2022/03/30 10:42:54;;;;;;;1.50;1.30;;;23.00;45.80;;;;;;4958635;28;45377;-54
2022/03/30 10:45:24;;;;;;;1.80;1.50;;;23.00;45.80;;;;;;4956835;28;44905;-48
2022/03/30 10:48:09;;;;;;;1.50;1.40;;;23.00;45.90;;;;;;4957689;28;45223;-52
2022/03/30 10:50:41;;;;;;;1.15;1.05;;;23.00;45.90;;;;;;4948741;28;45968;-47
2022/03/30 10:53:31;;;;;;;2.70;1.42;;;22.90;45.90;;;;;;4959965;28;45179;-52
2022/03/30 10:56:15;;;;;;;1.90;1.50;;;22.90;46.00;;;;;;4954030;28;45183;-52
2022/03/30 10:58:52;;;;;;;2.10;1.05;;;22.90;45.90;;;;;;4951193;28;45116;-50
2022/03/30 11:01:26;;;;;;;1.67;1.55;;;22.90;46.00;;;;;;4953498;28;46176;-52
2022/03/30 11:03:58;;;;;;;2.35;1.52;;;22.90;46.00;;;;;;4955310;28;45277;-51
2022/03/30 11:06:24;;;;;;;1.20;1.10;;;22.80;46.10;;;;;;4956669;28;45763;-56
2022/03/30 11:08:51;;;;;;;1.63;1.48;;;22.80;46.00;;;;;;4964039;28;44909;-53
2022/03/30 11:11:26;;;;;;;1.40;1.30;;;22.80;46.00;;;;;;4958136;28;46168;-50
2022/03/30 11:14:21;;;;;;;1.70;1.50;;;22.80;46.10;;;;;;4958443;28;45320;-48
2022/03/30 11:16:51;;;;;;;1.08;0.98;;;22.80;46.20;;;;;;4955793;28;45898;-54
2022/03/30 11:19:17;;;;;;;1.35;1.15;;;22.80;46.10;;;;;;4976330;28;45269;-49
2022/03/30 11:22:09;;;;;;;1.35;1.25;;;22.70;46.10;;;;;;4976588;28;46936;-51
2022/03/30 11:24:35;;;;;;;1.48;1.02;;;22.70;46.20;;;;;;4958580;28;45876;-48
2022/03/30 11:27:01;;;;;;;1.45;1.35;;;22.70;46.20;;;;;;4940831;28;45084;-48
2022/03/30 11:29:42;;;;;;;1.60;1.38;;;22.70;46.30;;;;;;4958171;28;45195;-54
2022/03/30 11:32:30;;;;;;;1.42;1.33;;;22.70;46.30;;;;;;4957366;28;46206;-54
2022/03/30 11:35:00;;;;;;;1.23;1.13;;;22.70;46.40;;;;;;4956556;28;45204;-52
2022/03/30 11:37:29;;;;;;;1.33;1.23;;;22.70;46.40;;;;;;4961545;28;45228;-52
2022/03/30 11:40:04;;;;;;;1.25;1.15;;;22.60;46.30;;;;;;4961309;28;44702;-55
2022/03/30 11:42:30;;;;;;;1.55;1.45;;;22.60;46.40;;;;;;4963273;28;45239;-54
2022/03/30 11:45:13;;;;;;;1.48;1.38;;;22.60;46.40;;;;;;4959422;28;45220;-55
2022/03/30 11:47:49;;;;;;;1.40;1.30;;;22.60;46.40;;;;;;4959559;28;45231;-53
2022/03/30 11:50:17;;;;;;;1.88;1.40;;;22.50;46.50;;;;;;4956317;28;45185;-52
2022/03/30 11:52:44;;;;;;;1.60;1.50;;;22.60;46.50;;;;;;4960005;28;45230;-50
2022/03/30 11:55:10;;;;;;;1.70;1.35;;;22.50;46.40;;;;;;4954857;28;44651;-48
2022/03/30 11:57:40;;;;;;;1.60;1.50;;;22.50;46.50;;;;;;4957775;28;45288;-52
2022/03/30 12:00:09;;;;;;;1.67;1.48;;;22.50;46.60;;;;;;4960922;28;45533;-52
2022/03/30 12:02:39;;;;;;;1.85;1.42;;;22.50;46.60;;;;;;4957601;28;46159;-50
2022/03/30 12:05:05;;;;;;;1.50;1.40;;;22.50;46.60;;;;;;4974710;28;45328;-53
2022/03/30 12:07:34;;;;;;;1.55;1.40;;;22.50;46.60;;;;;;4940564;28;45442;-56
2022/03/30 12:10:00;;;;;;;1.50;1.40;;;22.50;46.60;;;;;;4974541;28;45365;-52
2022/03/30 12:12:35;;;;;;;1.48;1.38;;;22.50;47.20;;;;;;4958738;28;47043;-52
2022/03/30 12:15:12;;;;;;;2.58;1.58;;;22.50;46.70;;;;;;4959591;28;45271;-50
2022/03/30 12:17:38;;;;;;;1.38;1.15;;;22.50;46.80;;;;;;4956901;28;45278;-51
2022/03/30 12:20:06;;;;;;;1.88;1.58;;;22.40;46.70;;;;;;4963191;28;45144;-52
2022/03/30 12:22:32;;;;;;;1.58;1.40;;;22.40;46.70;;;;;;4960035;28;47375;-49
2022/03/30 12:24:58;;;;;;;1.60;1.50;;;22.40;46.70;;;;;;4942307;28;45351;-52
2022/03/30 12:27:24;;;;;;;1.90;1.27;;;22.40;46.70;;;;;;4971554;28;45237;-51
2022/03/30 12:29:51;;;;;;;1.55;1.20;;;22.40;46.80;;;;;;4960947;28;45333;-51
2022/03/30 12:32:16;;;;;;;2.00;1.50;;;22.40;46.80;;;;;;4951697;28;45199;-51
2022/03/30 12:34:43;;;;;;;1.58;1.48;;;22.40;46.90;;;;;;4956920;28;44684;-51
2022/03/30 12:37:10;;;;;;;1.80;1.58;;;22.30;46.80;;;;;;4956065;28;45175;-50
2022/03/30 12:39:40;;;;;;;1.65;1.20;;;22.30;46.90;;;;;;4954766;28;46259;-49
2022/03/30 12:42:06;;;;;;;2.05;1.63;;;22.30;46.90;;;;;;4956001;28;46166;-56
2022/03/30 12:44:38;;;;;;;1.70;1.33;;;22.30;46.90;;;;;;4930757;28;45427;-49
2022/03/30 12:47:04;;;;;;;1.42;1.33;;;22.30;47.00;;;;;;4956984;28;45659;-55
2022/03/30 12:49:39;;;;;;;1.80;1.55;;;22.30;47.00;;;;;;4960070;28;45547;-51
2022/03/30 12:52:15;;;;;;;1.85;1.33;;;22.30;47.60;;;;;;4959479;28;46254;-48
2022/03/30 12:54:42;;;;;;;1.33;1.23;;;22.20;47.00;;;;;;4962230;28;45413;-50
2022/03/30 12:57:08;;;;;;;1.63;1.45;;;22.30;47.00;;;;;;4959269;28;45402;-49
2022/03/30 12:59:34;;;;;;;1.60;1.50;;;22.30;47.00;;;;;;4958036;28;45428;-52
2022/03/30 13:02:12;;;;;;;1.48;1.30;;;22.20;47.00;;;;;;4958954;28;46061;-50
2022/03/30 13:04:51;;;;;;;1.58;1.40;;;22.20;47.00;;;;;;4957504;28;45244;-49
2022/03/30 13:07:21;;;;;;;1.50;1.40;;;22.20;47.10;;;;;;4962511;28;45327;-52
2022/03/30 13:09:59;;;;;;;1.67;1.40;;;22.20;47.00;;;;;;4958689;28;45349;-55
2022/03/30 13:12:32;;;;;;;1.50;1.40;;;22.20;47.10;;;;;;4956235;28;46287;-49
2022/03/30 13:15:04;;;;;;;1.50;1.40;;;22.20;47.10;;;;;;4955542;28;45185;-51
2022/03/30 13:17:29;;;;;;;1.60;1.42;;;22.20;47.10;;;;;;4958644;28;45130;-52
2022/03/30 13:19:59;;;;;;;1.65;1.45;;;22.20;47.10;;;;;;4954239;28;46326;-52
2022/03/30 13:22:25;;;;;;;1.40;1.30;;;22.20;47.20;;;;;;4960113;28;45993;-54
2022/03/30 13:24:54;;;;;;;1.92;1.38;;;22.20;47.20;;;;;;4959608;28;45320;-52
2022/03/30 13:27:20;;;;;;;1.88;1.67;;;22.10;47.20;;;;;;4953137;28;45942;-52
2022/03/30 13:29:46;;;;;;;1.67;1.55;;;22.10;47.20;;;;;;4953190;28;45541;-51
2022/03/30 13:32:12;;;;;;;3.65;1.38;;;22.10;47.30;;;;;;4953435;28;45889;-53
2022/03/30 13:34:38;;;;;;;1.60;1.50;;;22.10;47.20;;;;;;4957972;28;44964;-50
2022/03/30 13:37:04;;;;;;;2.00;1.38;;;22.10;47.20;;;;;;4961097;28;45294;-50
2022/03/30 13:39:29;;;;;;;1.63;1.27;;;22.10;47.30;;;;;;4958953;28;46568;-49
2022/03/30 13:41:55;;;;;;;1.65;1.52;;;22.10;47.30;;;;;;4959078;28;45936;-48
2022/03/30 13:44:21;;;;;;;1.65;1.50;;;22.10;47.30;;;;;;4954620;28;44831;-53
2022/03/30 13:46:47;;;;;;;1.90;1.70;;;22.10;47.30;;;;;;4963637;28;45396;-48
2022/03/30 13:49:13;;;;;;;1.92;1.70;;;22.10;47.30;;;;;;4959002;28;44977;-50
2022/03/30 13:51:38;;;;;;;2.50;1.70;;;22.10;47.40;;;;;;4963736;28;45105;-51
2022/03/30 13:54:04;;;;;;;1.90;1.70;;;22.00;47.40;;;;;;4961091;28;45424;-52
2022/03/30 13:56:30;;;;;;;1.73;1.52;;;22.00;47.40;;;;;;4961635;28;45123;-54
2022/03/30 13:58:55;;;;;;;2.28;1.67;;;22.00;47.40;;;;;;4964627;28;45176;-52
2022/03/30 14:01:28;;;;;;;2.58;1.77;;;22.00;47.50;;;;;;4958214;28;47078;-52
2022/03/30 14:03:54;;;;;;;1.85;1.60;;;22.00;47.50;;;;;;4961452;28;45413;-48
2022/03/30 14:06:20;;;;;;;1.33;1.17;;;22.00;47.50;;;;;;4960651;28;44914;-56
2022/03/30 14:08:46;;;;;;;1.85;1.33;;;21.90;47.50;;;;;;4959332;28;45214;-48
2022/03/30 14:11:11;;;;;;;3.20;1.77;;;21.90;47.50;;;;;;4957362;28;45279;-51
2022/03/30 14:13:39;;;;;;;1.83;1.70;;;21.90;47.50;;;;;;4960181;28;45326;-51
2022/03/30 14:16:04;;;;;;;2.03;1.73;;;21.90;47.50;;;;;;4957426;28;45623;-51
2022/03/30 14:18:30;;;;;;;2.28;1.70;;;21.90;47.50;;;;;;4957138;28;44728;-54
2022/03/30 14:20:58;;;;;;;2.03;1.60;;;21.90;47.50;;;;;;4955420;28;45935;-53
2022/03/30 14:23:25;;;;;;;2.15;1.60;;;21.90;47.50;;;;;;4971281;28;44970;-55
2022/03/30 14:25:51;;;;;;;2.35;1.80;;;21.90;47.50;;;;;;4959642;28;45631;-54
2022/03/30 14:28:16;;;;;;;1.70;1.60;;;21.90;47.60;;;;;;4962548;28;45784;-54
2022/03/30 14:30:42;;;;;;;2.25;1.70;;;21.90;47.60;;;;;;4948933;28;45880;-54
2022/03/30 14:33:08;;;;;;;3.47;1.50;;;21.90;47.50;;;;;;4956016;28;45253;-51
2022/03/30 14:35:34;;;;;;;1.65;1.55;;;21.90;47.60;;;;;;4954796;28;45274;-55
2022/03/30 14:38:01;;;;;;;1.75;1.38;;;21.80;47.60;;;;;;4956116;28;46245;-51
2022/03/30 14:40:27;;;;;;;1.85;1.50;;;21.80;47.60;;;;;;4947916;28;47156;-57
2022/03/30 14:42:52;;;;;;;1.83;1.63;;;21.80;47.70;;;;;;4952949;28;46057;-51
2022/03/30 14:45:18;;;;;;;1.90;1.70;;;21.70;47.70;;;;;;4940978;28;45114;-52
2022/03/30 14:47:44;;;;;;;1.80;1.50;;;21.80;47.80;;;;;;4943802;28;45392;-50
2022/03/30 14:50:12;;;;;;;2.35;2.00;;;21.80;47.80;;;;;;4956712;28;45183;-50
2022/03/30 14:52:38;;;;;;;1.60;1.50;;;21.80;47.70;;;;;;4956524;28;45172;-53
2022/03/30 14:55:05;;;;;;;2.78;1.75;;;21.80;47.70;;;;;;4959853;28;45446;-49
2022/03/30 14:57:31;;;;;;;2.15;1.70;;;21.70;47.70;;;;;;4957623;28;45682;-51
2022/03/30 14:59:57;;;;;;;3.83;1.63;;;21.70;47.70;;;;;;4955841;28;45268;-50
2022/03/30 15:02:23;;;;;;;2.58;2.08;;;21.70;47.70;;;;;;4956183;28;45301;-51
2022/03/30 15:04:49;;;;;;;1.73;1.63;;;21.70;47.70;;;;;;4960432;28;45277;-51
2022/03/30 15:07:15;;;;;;;2.30;1.65;;;21.80;47.80;;;;;;4959585;28;45526;-50
2022/03/30 15:09:41;;;;;;;3.00;2.33;;;21.70;47.70;;;;;;4972077;28;46750;-50
2022/03/30 15:12:07;;;;;;;1.92;1.73;;;21.70;47.70;;;;;;4955850;28;45238;-56
2022/03/30 15:14:33;;;;;;;1.88;1.77;;;21.70;47.80;;;;;;4954132;28;45036;-56
2022/03/30 15:16:59;;;;;;;2.00;1.80;;;21.70;47.80;;;;;;4954941;28;45291;-50
2022/03/30 15:19:25;;;;;;;2.20;2.00;;;21.70;47.70;;;;;;4959959;28;45405;-51
2022/03/30 15:21:51;;;;;;;2.45;2.00;;;21.70;47.80;;;;;;4958312;28;45269;-53
2022/03/30 15:24:17;;;;;;;2.20;2.00;;;21.70;47.80;;;;;;4957897;28;45440;-55
2022/03/30 15:26:42;;;;;;;1.90;1.70;;;21.70;47.80;;;;;;4949813;28;48586;-51
2022/03/30 15:29:10;;;;;;;2.17;1.75;;;21.70;47.90;;;;;;4954623;28;46103;-55
2022/03/30 15:31:36;;;;;;;1.92;1.63;;;21.60;47.90;;;;;;4951567;28;45402;-60
2022/03/30 15:34:01;;;;;;;2.35;2.15;;;21.60;47.90;;;;;;4952127;28;45449;-56
2022/03/30 15:36:27;;;;;;;2.38;1.90;;;21.60;47.90;;;;;;4951519;28;45544;-54
2022/03/30 15:38:56;;;;;;;2.25;1.85;;;21.60;47.90;;;;;;4950212;28;45053;-53
2022/03/30 15:41:22;;;;;;;2.35;1.77;;;21.60;47.90;;;;;;4950906;28;44746;-56
2022/03/30 15:43:47;;;;;;;4.78;2.10;;;21.60;48.00;;;;;;4951706;28;45655;-52
2022/03/30 15:46:13;;;;;;;1.90;1.70;;;21.60;48.00;;;;;;4952612;28;44757;-53
2022/03/30 15:48:39;;;;;;;2.05;1.80;;;21.60;48.00;;;;;;4953263;28;46157;-52
2022/03/30 15:51:04;;;;;;;2.17;1.95;;;21.60;48.00;;;;;;4953701;28;45359;-56
2022/03/30 15:53:30;;;;;;;2.78;2.08;;;21.60;48.00;;;;;;4955910;28;45596;-56
2022/03/30 15:55:57;;;;;;;2.67;2.05;;;21.60;48.00;;;;;;4954338;28;45231;-54
2022/03/30 15:58:26;;;;;;;2.13;1.90;;;21.60;48.00;;;;;;4955282;28;46242;-51
2022/03/30 16:00:52;;;;;;;2.00;1.80;;;21.60;48.00;;;;;;4950033;28;45225;-59